sensor_id;sensor_type;location;lat;lon;timestamp;temperature;humidity
18670;DHT22;9464;44.918;9.670;2022-08-19T00:01:46;22.90;99.90
18670;DHT22;9464;44.918;9.670;2022-08-19T00:04:21;22.90;99.90
18670;DHT22;9464;44.918;9.670;2022-08-19T00:06:50;22.90;99.90
18670;DHT22;9464;44.918;9.670;2022-08-19T00:09:20;22.90;99.90
18670;DHT22;9464;44.918;9.670;2022-08-19T00:11:49;22.90;99.90
18670;DHT22;9464;44.918;9.670;2022-08-19T00:14:19;22.90;99.90
18670;DHT22;9464;44.918;9.670;2022-08-19T00:16:49;22.90;99.90
18670;DHT22;9464;44.918;9.670;2022-08-19T00:19:18;22.80;99.90
18670;DHT22;9464;44.918;9.670;2022-08-19T00:21:46;22.80;99.90
18670;DHT22;9464;44.918;9.670;2022-08-19T00:24:15;22.80;99.90
18670;DHT22;9464;44.918;9.670;2022-08-19T00:26:44;22.80;99.90
18670;DHT22;9464;44.918;9.670;2022-08-19T00:29:14;22.90;99.90
18670;DHT22;9464;44.918;9.670;2022-08-19T00:31:45;22.90;99.90
18670;DHT22;9464;44.918;9.670;2022-08-19T00:34:14;22.90;99.90
18670;DHT22;9464;44.918;9.670;2022-08-19T00:36:43;22.90;99.90
18670;DHT22;9464;44.918;9.670;2022-08-19T00:39:13;22.90;99.90
18670;DHT22;9464;44.918;9.670;2022-08-19T00:41:43;23.00;99.90
18670;DHT22;9464;44.918;9.670;2022-08-19T00:44:15;22.90;99.90
18670;DHT22;9464;44.918;9.670;2022-08-19T00:46:49;23.00;99.90
18670;DHT22;9464;44.918;9.670;2022-08-19T00:49:27;23.00;99.90
18670;DHT22;9464;44.918;9.670;2022-08-19T00:52:00;22.90;99.90
18670;DHT22;9464;44.918;9.670;2022-08-19T00:54:30;22.90;99.90
18670;DHT22;9464;44.918;9.670;2022-08-19T00:57:00;22.80;99.90
18670;DHT22;9464;44.918;9.670;2022-08-19T00:59:29;22.80;99.90
18670;DHT22;9464;44.918;9.670;2022-08-19T01:02:19;22.70;99.90
18670;DHT22;9464;44.918;9.670;2022-08-19T01:04:47;22.70;99.90
18670;DHT22;9464;44.918;9.670;2022-08-19T01:07:16;22.70;99.90
18670;DHT22;9464;44.918;9.670;2022-08-19T01:09:46;22.70;99.90
18670;DHT22;9464;44.918;9.670;2022-08-19T01:12:15;22.70;99.90
18670;DHT22;9464;44.918;9.670;2022-08-19T01:14:43;22.70;99.90
18670;DHT22;9464;44.918;9.670;2022-08-19T01:17:13;22.80;99.90
18670;DHT22;9464;44.918;9.670;2022-08-19T01:19:45;22.80;99.90
18670;DHT22;9464;44.918;9.670;2022-08-19T19:08:20;25.20;99.90
18670;DHT22;9464;44.918;9.670;2022-08-19T19:10:55;25.20;99.90
18670;DHT22;9464;44.918;9.670;2022-08-19T19:13:24;25.20;99.90
18670;DHT22;9464;44.918;9.670;2022-08-19T19:15:54;25.20;99.90
18670;DHT22;9464;44.918;9.670;2022-08-19T19:18:22;25.10;99.90
18670;DHT22;9464;44.918;9.670;2022-08-19T19:20:51;25.10;99.90
18670;DHT22;9464;44.918;9.670;2022-08-19T19:23:19;25.10;99.90
18670;DHT22;9464;44.918;9.670;2022-08-19T19:25:51;25.00;99.90
18670;DHT22;9464;44.918;9.670;2022-08-19T19:28:23;25.00;99.90
18670;DHT22;9464;44.918;9.670;2022-08-19T19:30:55;25.00;99.90
18670;DHT22;9464;44.918;9.670;2022-08-19T19:33:25;24.90;99.90
18670;DHT22;9464;44.918;9.670;2022-08-19T19:35:53;24.90;99.90
18670;DHT22;9464;44.918;9.670;2022-08-19T19:38:22;24.80;99.90
18670;DHT22;9464;44.918;9.670;2022-08-19T19:40:50;24.80;99.90
18670;DHT22;9464;44.918;9.670;2022-08-19T19:43:18;24.80;99.90
18670;DHT22;9464;44.918;9.670;2022-08-19T19:45:48;24.80;99.90
18670;DHT22;9464;44.918;9.670;2022-08-19T19:48:17;24.70;99.90
18670;DHT22;9464;44.918;9.670;2022-08-19T19:50:46;24.60;99.90
18670;DHT22;9464;44.918;9.670;2022-08-19T19:53:22;24.60;99.90
18670;DHT22;9464;44.918;9.670;2022-08-19T19:55:52;24.50;99.90
18670;DHT22;9464;44.918;9.670;2022-08-19T19:58:24;24.50;99.90
18670;DHT22;9464;44.918;9.670;2022-08-19T20:00:56;24.50;99.90
18670;DHT22;9464;44.918;9.670;2022-08-19T20:03:25;24.40;99.90
18670;DHT22;9464;44.918;9.670;2022-08-19T20:05:56;24.30;99.90
18670;DHT22;9464;44.918;9.670;2022-08-19T20:08:26;24.30;99.90
18670;DHT22;9464;44.918;9.670;2022-08-19T20:11:23;24.20;99.90
18670;DHT22;9464;44.918;9.670;2022-08-19T20:13:51;24.20;99.90
18670;DHT22;9464;44.918;9.670;2022-08-19T20:16:21;24.20;99.90
18670;DHT22;9464;44.918;9.670;2022-08-19T20:18:51;24.20;99.90
18670;DHT22;9464;44.918;9.670;2022-08-19T20:21:23;24.20;99.90
18670;DHT22;9464;44.918;9.670;2022-08-19T20:23:53;24.20;99.90
18670;DHT22;9464;44.918;9.670;2022-08-19T20:26:36;24.20;99.90
18670;DHT22;9464;44.918;9.670;2022-08-19T20:29:05;24.20;99.90
18670;DHT22;9464;44.918;9.670;2022-08-19T20:31:55;24.20;99.90
18670;DHT22;9464;44.918;9.670;2022-08-19T20:34:26;24.20;99.90
18670;DHT22;9464;44.918;9.670;2022-08-19T20:36:54;24.20;99.90
18670;DHT22;9464;44.918;9.670;2022-08-19T20:39:22;24.10;99.90
18670;DHT22;9464;44.918;9.670;2022-08-19T20:41:50;24.20;99.90
18670;DHT22;9464;44.918;9.670;2022-08-19T20:44:19;24.10;99.90
18670;DHT22;9464;44.918;9.670;2022-08-19T20:46:47;24.10;99.90
18670;DHT22;9464;44.918;9.670;2022-08-19T20:49:23;24.10;99.90
18670;DHT22;9464;44.918;9.670;2022-08-19T20:51:53;24.10;99.90
18670;DHT22;9464;44.918;9.670;2022-08-19T20:54:21;24.10;99.90
18670;DHT22;9464;44.918;9.670;2022-08-19T20:56:50;24.00;99.90
18670;DHT22;9464;44.918;9.670;2022-08-19T20:59:19;24.00;99.90
18670;DHT22;9464;44.918;9.670;2022-08-19T21:01:48;24.00;99.90
18670;DHT22;9464;44.918;9.670;2022-08-19T21:04:18;24.00;99.90
18670;DHT22;9464;44.918;9.670;2022-08-19T21:06:48;23.90;99.90
18670;DHT22;9464;44.918;9.670;2022-08-19T21:09:17;23.90;99.90
18670;DHT22;9464;44.918;9.670;2022-08-19T21:11:45;23.90;99.90
18670;DHT22;9464;44.918;9.670;2022-08-19T21:14:13;23.90;99.90
18670;DHT22;9464;44.918;9.670;2022-08-19T21:16:41;23.80;99.90
18670;DHT22;9464;44.918;9.670;2022-08-19T21:19:10;23.80;99.90
18670;DHT22;9464;44.918;9.670;2022-08-19T21:21:38;23.80;99.90
18670;DHT22;9464;44.918;9.670;2022-08-19T21:24:08;23.80;99.90
18670;DHT22;9464;44.918;9.670;2022-08-19T21:26:36;23.80;99.90
18670;DHT22;9464;44.918;9.670;2022-08-19T21:29:04;23.70;99.90
18670;DHT22;9464;44.918;9.670;2022-08-19T21:31:32;23.70;99.90
18670;DHT22;9464;44.918;9.670;2022-08-19T21:34:00;23.70;99.90
18670;DHT22;9464;44.918;9.670;2022-08-19T21:36:30;23.70;99.90
18670;DHT22;9464;44.918;9.670;2022-08-19T21:38:58;23.70;99.90
18670;DHT22;9464;44.918;9.670;2022-08-19T21:41:27;23.60;99.90
18670;DHT22;9464;44.918;9.670;2022-08-19T21:43:56;23.60;99.90
18670;DHT22;9464;44.918;9.670;2022-08-19T21:46:24;23.60;99.90
18670;DHT22;9464;44.918;9.670;2022-08-19T21:48:52;23.50;99.90
18670;DHT22;9464;44.918;9.670;2022-08-19T21:51:20;23.60;99.90
18670;DHT22;9464;44.918;9.670;2022-08-19T21:53:48;23.60;99.90
18670;DHT22;9464;44.918;9.670;2022-08-19T21:56:18;23.60;99.90
18670;DHT22;9464;44.918;9.670;2022-08-19T21:58:48;23.50;99.90
18670;DHT22;9464;44.918;9.670;2022-08-19T22:01:16;23.50;99.90
18670;DHT22;9464;44.918;9.670;2022-08-19T22:03:44;23.50;99.90
18670;DHT22;9464;44.918;9.670;2022-08-19T22:06:13;23.50;99.90
18670;DHT22;9464;44.918;9.670;2022-08-19T22:08:42;23.40;99.90
18670;DHT22;9464;44.918;9.670;2022-08-19T22:11:10;23.40;99.90
18670;DHT22;9464;44.918;9.670;2022-08-19T22:13:39;23.40;99.90
18670;DHT22;9464;44.918;9.670;2022-08-19T22:16:08;23.40;99.90
18670;DHT22;9464;44.918;9.670;2022-08-19T22:18:37;23.30;99.90
18670;DHT22;9464;44.918;9.670;2022-08-19T22:21:05;23.30;99.90
18670;DHT22;9464;44.918;9.670;2022-08-19T22:23:38;23.30;99.90
18670;DHT22;9464;44.918;9.670;2022-08-19T22:26:06;23.30;99.90
18670;DHT22;9464;44.918;9.670;2022-08-19T22:28:35;23.30;99.90
18670;DHT22;9464;44.918;9.670;2022-08-19T22:31:05;23.30;99.90
18670;DHT22;9464;44.918;9.670;2022-08-19T22:33:35;23.30;99.90
18670;DHT22;9464;44.918;9.670;2022-08-19T22:36:04;23.30;99.90
18670;DHT22;9464;44.918;9.670;2022-08-19T22:38:34;23.30;99.90
18670;DHT22;9464;44.918;9.670;2022-08-19T22:41:03;23.40;99.90
18670;DHT22;9464;44.918;9.670;2022-08-19T22:43:34;23.40;99.90
18670;DHT22;9464;44.918;9.670;2022-08-19T22:46:03;23.40;99.90
18670;DHT22;9464;44.918;9.670;2022-08-19T22:48:45;23.40;99.90
18670;DHT22;9464;44.918;9.670;2022-08-19T22:51:26;23.40;99.90
18670;DHT22;9464;44.918;9.670;2022-08-19T22:54:11;23.40;99.90
18670;DHT22;9464;44.918;9.670;2022-08-19T22:56:39;23.40;99.90
18670;DHT22;9464;44.918;9.670;2022-08-19T22:59:09;23.40;99.90
18670;DHT22;9464;44.918;9.670;2022-08-19T23:01:37;23.40;99.90
18670;DHT22;9464;44.918;9.670;2022-08-19T23:04:09;23.40;99.90
18670;DHT22;9464;44.918;9.670;2022-08-19T23:06:37;23.40;99.90
18670;DHT22;9464;44.918;9.670;2022-08-19T23:09:08;23.40;99.90
18670;DHT22;9464;44.918;9.670;2022-08-19T23:11:42;23.40;99.90
18670;DHT22;9464;44.918;9.670;2022-08-19T23:14:11;23.40;99.90
18670;DHT22;9464;44.918;9.670;2022-08-19T23:16:39;23.40;99.90
18670;DHT22;9464;44.918;9.670;2022-08-19T23:19:10;23.40;99.90
18670;DHT22;9464;44.918;9.670;2022-08-19T23:21:39;23.40;99.90
18670;DHT22;9464;44.918;9.670;2022-08-19T23:24:08;23.30;99.90
18670;DHT22;9464;44.918;9.670;2022-08-19T23:26:37;23.30;99.90
18670;DHT22;9464;44.918;9.670;2022-08-19T23:29:25;23.30;99.90
18670;DHT22;9464;44.918;9.670;2022-08-19T23:32:13;23.20;99.90
18670;DHT22;9464;44.918;9.670;2022-08-19T23:34:44;23.20;99.90
18670;DHT22;9464;44.918;9.670;2022-08-19T23:37:13;23.20;99.90
18670;DHT22;9464;44.918;9.670;2022-08-19T23:39:41;23.10;99.90
18670;DHT22;9464;44.918;9.670;2022-08-19T23:42:11;23.00;99.90
18670;DHT22;9464;44.918;9.670;2022-08-19T23:44:39;23.00;99.90
18670;DHT22;9464;44.918;9.670;2022-08-19T23:47:19;22.90;99.90
18670;DHT22;9464;44.918;9.670;2022-08-19T23:49:49;22.90;99.90
18670;DHT22;9464;44.918;9.670;2022-08-19T23:52:17;22.80;99.90
18670;DHT22;9464;44.918;9.670;2022-08-19T23:54:45;22.80;99.90
18670;DHT22;9464;44.918;9.670;2022-08-19T23:57:14;22.70;99.90
18670;DHT22;9464;44.918;9.670;2022-08-19T23:59:42;22.70;99.90
